createdAt,value
2023-05-10T00:00:23.566Z,1.90
2023-05-10T00:03:26.195Z,2.03
2023-05-10T00:06:29.002Z,2.13
2023-05-10T00:09:31.642Z,2.00
2023-05-10T00:12:34.119Z,2.03
2023-05-10T00:15:36.569Z,2.10
2023-05-10T00:18:39.103Z,2.00
2023-05-10T00:21:41.764Z,2.00
2023-05-10T00:24:44.206Z,2.30
2023-05-10T00:27:46.622Z,2.00
2023-05-10T00:30:49.089Z,2.22
2023-05-10T00:33:51.562Z,2.22
2023-05-10T00:36:53.987Z,2.30
2023-05-10T00:39:57.673Z,2.13
2023-05-10T00:43:01.523Z,2.30
2023-05-10T00:46:05.166Z,2.15
2023-05-10T00:49:08.555Z,2.30
2023-05-10T00:52:11.289Z,2.00
2023-05-10T00:55:15.039Z,2.00
2023-05-10T00:58:18.139Z,2.10
2023-05-10T01:01:20.980Z,2.20
2023-05-10T01:04:26.597Z,2.15
2023-05-10T01:07:29.763Z,2.70
2023-05-10T01:10:32.726Z,2.67
2023-05-10T01:13:38.958Z,2.10
2023-05-10T01:16:43.238Z,2.28
2023-05-10T01:19:45.748Z,2.78
2023-05-10T01:23:10.033Z,1.88
2023-05-10T01:26:31.963Z,2.40
2023-05-10T01:30:21.746Z,2.47
2023-05-10T01:33:30.795Z,2.40
2023-05-10T01:36:59.557Z,2.33
2023-05-10T01:40:31.193Z,2.20
2023-05-10T01:43:41.355Z,2.27
2023-05-10T01:46:44.144Z,2.20
2023-05-10T01:49:53.065Z,2.20
2023-05-10T01:52:58.983Z,2.40
2023-05-10T01:56:03.156Z,2.17
2023-05-10T01:59:09.860Z,2.13
2023-05-10T02:02:14.554Z,2.07
2023-05-10T02:05:18.553Z,2.60
2023-05-10T02:08:22.865Z,2.40
2023-05-10T02:11:26.534Z,2.60
2023-05-10T02:14:31.858Z,2.30
2023-05-10T02:17:36.471Z,2.40
2023-05-10T02:20:40.076Z,2.47
2023-05-10T02:23:44.219Z,2.35
2023-05-10T02:26:49.390Z,2.63
2023-05-10T02:29:52.643Z,2.43
2023-05-10T02:32:56.589Z,2.73
2023-05-10T02:36:00.285Z,2.42
2023-05-10T02:39:03.653Z,2.75
2023-05-10T02:42:06.654Z,2.80
2023-05-10T02:45:13.743Z,2.77
2023-05-10T02:48:17.999Z,2.60
2023-05-10T02:51:25.679Z,2.75
2023-05-10T02:54:34.117Z,2.70
2023-05-10T02:57:42.317Z,2.80
2023-05-10T03:00:44.931Z,2.90
2023-05-10T03:03:47.871Z,2.93
2023-05-10T03:06:51.421Z,2.53
2023-05-10T03:09:54.341Z,3.20
2023-05-10T03:13:22.033Z,2.90
2023-05-10T03:16:30.566Z,2.90
2023-05-10T03:19:51.985Z,2.50
2023-05-10T03:23:06.293Z,2.55
2023-05-10T03:26:09.760Z,2.55
2023-05-10T03:29:14.174Z,2.80
2023-05-10T03:32:16.806Z,2.50
2023-05-10T03:35:19.274Z,2.43
2023-05-10T03:38:22.096Z,2.70
2023-05-10T03:41:24.809Z,2.92
2023-05-10T03:44:27.226Z,2.80
2023-05-10T03:47:30.867Z,3.13
2023-05-10T03:50:34.167Z,3.03
2023-05-10T03:53:36.786Z,3.10
2023-05-10T03:56:39.434Z,3.10
2023-05-10T03:59:42.360Z,3.17
2023-05-10T04:02:46.254Z,2.80
2023-05-10T04:06:03.512Z,3.07
2023-05-10T04:09:06.408Z,3.10
2023-05-10T04:12:10.858Z,3.47
2023-05-10T04:15:13.728Z,3.47
2023-05-10T04:18:16.527Z,3.30
2023-05-10T04:21:19.007Z,3.40
2023-05-10T04:24:21.491Z,3.40
2023-05-10T04:27:23.991Z,3.33
2023-05-10T04:30:26.582Z,3.15
2023-05-10T04:33:29.065Z,3.30
2023-05-10T04:36:33.495Z,3.70
2023-05-10T04:39:36.752Z,3.63
2023-05-10T04:42:42.142Z,3.35
2023-05-10T04:45:44.531Z,3.83
2023-05-10T04:48:46.967Z,3.60
2023-05-10T04:51:49.537Z,3.50
2023-05-10T04:54:52.451Z,3.72
2023-05-10T04:57:57.785Z,3.63
2023-05-10T05:01:10.512Z,3.60
2023-05-10T05:04:13.094Z,3.47
2023-05-10T05:07:15.832Z,3.63
2023-05-10T05:10:18.737Z,3.50
2023-05-10T05:13:21.595Z,3.85
2023-05-10T05:16:24.527Z,3.65
2023-05-10T05:19:28.530Z,4.13
2023-05-10T05:22:32.919Z,3.60
2023-05-10T05:25:36.650Z,3.90
2023-05-10T05:28:40.231Z,3.80
2023-05-10T05:31:43.694Z,3.65
2023-05-10T05:34:47.313Z,3.50
2023-05-10T05:37:50.536Z,3.87
2023-05-10T05:40:53.128Z,4.13
2023-05-10T05:43:58.502Z,3.83
2023-05-10T05:47:01.404Z,3.60
2023-05-10T05:50:04.799Z,3.87
2023-05-10T05:53:07.793Z,3.57
2023-05-10T05:56:10.913Z,3.85
2023-05-10T05:59:14.030Z,3.60
2023-05-10T06:02:16.917Z,3.65
2023-05-10T06:05:20.233Z,3.87
2023-05-10T06:08:23.827Z,3.80
2023-05-10T06:11:27.273Z,3.60
2023-05-10T06:14:30.438Z,3.80
2023-05-10T06:17:33.654Z,3.53
2023-05-10T06:20:36.480Z,3.40
2023-05-10T06:23:39.959Z,3.80
2023-05-10T06:26:42.588Z,4.15
2023-05-10T06:29:45.040Z,3.53
2023-05-10T06:32:48.342Z,3.53
2023-05-10T06:35:51.438Z,3.40
2023-05-10T06:38:54.166Z,3.37
2023-05-10T06:41:57.159Z,3.42
2023-05-10T06:45:00.668Z,3.60
2023-05-10T06:48:03.901Z,3.60
2023-05-10T06:51:06.867Z,3.40
2023-05-10T06:54:30.325Z,3.10
2023-05-10T06:57:32.939Z,3.08
2023-05-10T07:00:35.807Z,3.08
2023-05-10T07:03:38.739Z,3.10
2023-05-10T07:06:41.756Z,3.30
2023-05-10T07:09:44.680Z,3.27
2023-05-10T07:12:48.703Z,3.33
2023-05-10T07:15:51.362Z,3.53
2023-05-10T07:18:54.649Z,3.40
2023-05-10T07:21:57.222Z,3.23
2023-05-10T07:24:59.617Z,3.10
2023-05-10T07:28:02.278Z,3.00
2023-05-10T07:31:05.162Z,3.20
2023-05-10T07:34:07.817Z,2.85
2023-05-10T07:37:10.380Z,2.70
2023-05-10T07:40:13.165Z,3.03
2023-05-10T07:43:15.531Z,3.10
2023-05-10T07:46:18.319Z,3.00
2023-05-10T07:49:21.137Z,3.15
2023-05-10T07:52:23.578Z,3.27
2023-05-10T07:55:27.880Z,2.90
2023-05-10T07:58:31.504Z,3.15
2023-05-10T08:01:36.088Z,3.17
2023-05-10T08:04:38.625Z,2.78
2023-05-10T08:07:42.011Z,2.87
2023-05-10T08:10:45.279Z,2.70
2023-05-10T08:13:49.345Z,2.72
2023-05-10T08:16:51.879Z,2.70
2023-05-10T08:19:54.874Z,2.97
2023-05-10T08:22:57.343Z,2.83
2023-05-10T08:26:00.843Z,3.13
2023-05-10T08:29:03.576Z,2.92
2023-05-10T08:32:06.277Z,2.70
2023-05-10T08:35:08.765Z,2.78
2023-05-10T08:38:11.422Z,2.93
2023-05-10T08:41:14.914Z,2.47
2023-05-10T08:44:19.318Z,2.80
2023-05-10T08:47:22.317Z,3.03
2023-05-10T08:50:26.412Z,2.88
2023-05-10T08:53:34.404Z,3.07
2023-05-10T08:56:37.547Z,2.53
2023-05-10T08:59:41.618Z,2.35
2023-05-10T09:02:45.258Z,2.70
2023-05-10T09:05:48.787Z,2.80
2023-05-10T09:08:52.082Z,2.80
2023-05-10T09:11:55.620Z,2.70
2023-05-10T09:15:00.807Z,3.10
2023-05-10T09:18:03.604Z,2.60
2023-05-10T09:21:06.493Z,2.35
2023-05-10T09:24:10.095Z,2.60
2023-05-10T09:27:12.534Z,2.70
2023-05-10T09:30:25.459Z,2.65
2023-05-10T09:33:28.386Z,2.60
2023-05-10T09:36:30.900Z,2.50
2023-05-10T09:39:38.562Z,2.70
2023-05-10T09:42:43.587Z,2.90
2023-05-10T09:45:50.863Z,2.75
2023-05-10T09:48:53.790Z,2.45
2023-05-10T09:52:07.503Z,2.47
2023-05-10T09:55:10.317Z,2.33
2023-05-10T09:58:16.121Z,2.47
2023-05-10T10:01:18.646Z,2.50
2023-05-10T10:04:22.385Z,2.55
2023-05-10T10:07:26.613Z,2.65
2023-05-10T10:10:29.679Z,2.70
2023-05-10T10:13:33.256Z,2.20
2023-05-10T10:16:36.399Z,2.10
2023-05-10T10:19:39.240Z,2.13
2023-05-10T10:22:42.236Z,2.20
2023-05-10T10:25:49.005Z,1.90
2023-05-10T10:28:57.482Z,1.83
2023-05-10T10:32:18.638Z,2.00
2023-05-10T10:35:21.365Z,2.22
2023-05-10T10:38:24.393Z,2.30
2023-05-10T10:41:36.503Z,2.00
2023-05-10T10:44:39.777Z,1.90
2023-05-10T10:47:44.550Z,1.98
2023-05-10T10:50:50.346Z,1.90
2023-05-10T10:53:53.015Z,2.03
2023-05-10T10:57:15.528Z,2.10
2023-05-10T11:00:22.791Z,2.13
2023-05-10T11:03:26.564Z,2.00
2023-05-10T11:06:34.624Z,1.45
2023-05-10T11:09:41.223Z,1.80
2023-05-10T11:13:04.510Z,2.00
2023-05-10T11:16:18.906Z,1.77
2023-05-10T11:19:21.735Z,2.28
2023-05-10T11:22:26.818Z,2.15
2023-05-10T11:25:29.670Z,1.75
2023-05-10T11:28:33.090Z,1.70
2023-05-10T11:31:36.406Z,1.70
2023-05-10T11:34:39.804Z,1.90
2023-05-10T11:37:44.752Z,1.90
2023-05-10T11:40:47.867Z,1.90
2023-05-10T11:43:52.414Z,1.70
2023-05-10T11:46:55.021Z,1.50
2023-05-10T11:49:58.337Z,1.80
2023-05-10T11:53:00.967Z,1.80
2023-05-10T11:56:07.702Z,1.67
2023-05-10T11:59:10.730Z,1.70
2023-05-10T12:02:17.053Z,1.80
2023-05-10T12:05:19.634Z,1.70
2023-05-10T12:08:27.465Z,1.70
2023-05-10T12:11:30.031Z,2.10
2023-05-10T12:14:36.215Z,2.07
2023-05-10T12:17:43.186Z,1.70
2023-05-10T12:20:46.174Z,1.40
2023-05-10T12:23:52.342Z,1.85
2023-05-10T12:26:54.790Z,2.05
2023-05-10T12:30:00.766Z,1.67
2023-05-10T12:33:09.206Z,1.73
2023-05-10T12:36:13.671Z,1.50
2023-05-10T12:39:16.791Z,2.25
2023-05-10T12:42:19.346Z,1.70
2023-05-10T12:45:22.033Z,1.67
2023-05-10T12:48:24.791Z,1.90
2023-05-10T12:51:27.362Z,1.70
2023-05-10T12:54:30.183Z,1.77
2023-05-10T12:57:32.663Z,1.55
2023-05-10T13:00:35.109Z,1.60
2023-05-10T13:03:37.640Z,1.50
2023-05-10T13:06:40.173Z,1.77
2023-05-10T13:09:42.804Z,1.83
2023-05-10T13:12:46.273Z,1.75
2023-05-10T13:15:49.784Z,1.43
2023-05-10T13:18:52.177Z,1.63
2023-05-10T13:21:54.636Z,1.40
2023-05-10T13:24:57.058Z,1.48
2023-05-10T13:27:59.538Z,1.80
2023-05-10T13:31:03.371Z,1.77
2023-05-10T13:34:06.375Z,1.60
2023-05-10T13:37:08.806Z,1.70
2023-05-10T13:40:11.451Z,1.77
2023-05-10T13:43:13.960Z,1.23
2023-05-10T13:46:16.537Z,1.57
2023-05-10T13:49:19.062Z,1.40
2023-05-10T13:52:22.335Z,1.40
2023-05-10T13:55:25.501Z,1.38
2023-05-10T13:58:27.970Z,1.20
2023-05-10T14:01:30.492Z,1.33
2023-05-10T14:04:33.077Z,1.40
2023-05-10T14:07:35.767Z,1.30
2023-05-10T14:10:39.070Z,1.30
2023-05-10T14:13:41.541Z,1.20
2023-05-10T14:16:46.682Z,1.40
2023-05-10T14:19:49.202Z,1.40
2023-05-10T14:22:51.859Z,1.33
2023-05-10T14:25:55.522Z,1.23
2023-05-10T14:28:58.221Z,1.40
2023-05-10T14:32:00.872Z,1.30
2023-05-10T14:35:03.979Z,1.30
2023-05-10T14:38:06.687Z,1.25
2023-05-10T14:41:11.264Z,1.50
2023-05-10T14:44:14.396Z,1.30
2023-05-10T14:47:16.824Z,1.20
2023-05-10T14:50:35.317Z,1.50
2023-05-10T14:53:39.460Z,1.23
2023-05-10T14:56:42.620Z,1.10
2023-05-10T14:59:45.068Z,1.08
2023-05-10T15:02:49.127Z,0.90
2023-05-10T15:05:52.656Z,1.20
2023-05-10T15:08:55.019Z,1.27
2023-05-10T15:11:57.459Z,1.15
2023-05-10T15:14:59.856Z,1.30
2023-05-10T15:18:02.540Z,1.10
2023-05-10T15:21:05.093Z,1.30
2023-05-10T15:24:07.677Z,1.58
2023-05-10T15:27:10.123Z,1.40
2023-05-10T15:30:13.264Z,1.40
2023-05-10T15:33:15.817Z,1.40
2023-05-10T15:36:19.031Z,1.53
2023-05-10T15:39:21.606Z,1.40
2023-05-10T15:42:24.060Z,1.48
2023-05-10T15:45:26.472Z,1.58
2023-05-10T15:48:29.142Z,1.73
2023-05-10T15:51:34.871Z,1.77
2023-05-10T15:54:39.543Z,1.48
2023-05-10T15:57:43.658Z,1.52
2023-05-10T16:00:46.158Z,1.70
2023-05-10T16:03:48.562Z,2.10
2023-05-10T16:06:50.985Z,1.67
2023-05-10T16:09:53.452Z,1.70
2023-05-10T16:12:56.239Z,1.50
2023-05-10T16:15:58.712Z,1.50
2023-05-10T16:19:02.422Z,1.50
2023-05-10T16:22:05.189Z,1.70
2023-05-10T16:25:08.337Z,1.42
2023-05-10T16:28:10.934Z,1.60
2023-05-10T16:31:13.930Z,2.03
2023-05-10T16:34:16.583Z,1.57
2023-05-10T16:37:19.043Z,1.60
2023-05-10T16:40:22.028Z,1.50
2023-05-10T16:43:26.139Z,1.60
2023-05-10T16:46:28.937Z,1.70
2023-05-10T16:49:31.605Z,1.63
2023-05-10T16:52:35.379Z,1.70
2023-05-10T16:55:38.037Z,1.48
2023-05-10T16:58:40.508Z,1.85
2023-05-10T17:01:43.000Z,1.40
2023-05-10T17:04:45.618Z,1.40
2023-05-10T17:07:48.268Z,1.77
2023-05-10T17:10:50.628Z,1.77
2023-05-10T17:13:53.059Z,1.45
2023-05-10T17:16:55.692Z,1.50
2023-05-10T17:19:58.796Z,1.60
2023-05-10T17:23:03.223Z,1.80
2023-05-10T17:26:06.858Z,1.60
2023-05-10T17:29:09.422Z,1.45
2023-05-10T17:32:11.877Z,1.50
2023-05-10T17:35:14.616Z,1.90
2023-05-10T17:38:17.376Z,1.70
2023-05-10T17:41:19.951Z,1.30
2023-05-10T17:44:22.421Z,1.50
2023-05-10T17:47:24.994Z,1.70
2023-05-10T17:50:27.636Z,1.40
2023-05-10T17:53:30.631Z,1.30
2023-05-10T17:56:33.020Z,1.45
2023-05-10T17:59:35.504Z,1.50
2023-05-10T18:02:38.062Z,1.50
2023-05-10T18:05:40.760Z,1.50
2023-05-10T18:08:43.337Z,1.30
2023-05-10T18:11:45.801Z,1.40
2023-05-10T18:14:48.298Z,1.48
2023-05-10T18:17:50.870Z,1.50
2023-05-10T18:20:56.708Z,1.37
2023-05-10T18:23:59.160Z,1.30
2023-05-10T18:27:02.013Z,1.50
2023-05-10T18:30:06.258Z,1.52
2023-05-10T18:33:11.912Z,1.80
2023-05-10T18:36:14.695Z,1.60
2023-05-10T18:39:18.681Z,1.50
2023-05-10T18:42:21.322Z,1.50
2023-05-10T18:45:23.870Z,1.65
2023-05-10T18:48:26.671Z,1.60
2023-05-10T18:51:32.564Z,1.70
2023-05-10T18:54:35.026Z,1.60
2023-05-10T18:57:41.524Z,1.70
2023-05-10T19:00:44.489Z,1.52
2023-05-10T19:03:46.982Z,1.70
2023-05-10T19:06:49.554Z,1.40
2023-05-10T19:09:52.239Z,1.70
2023-05-10T19:12:55.064Z,1.45
2023-05-10T19:16:16.971Z,1.42
2023-05-10T19:19:19.649Z,1.50
2023-05-10T19:22:35.300Z,1.50
2023-05-10T19:25:45.557Z,1.33
2023-05-10T19:28:51.002Z,1.60
2023-05-10T19:31:53.885Z,1.40
2023-05-10T19:34:56.985Z,1.98
2023-05-10T19:37:59.444Z,1.53
2023-05-10T19:41:02.042Z,1.43
2023-05-10T19:44:04.932Z,1.30
2023-05-10T19:47:09.544Z,1.50
2023-05-10T19:50:12.611Z,1.50
2023-05-10T19:53:15.434Z,1.70
2023-05-10T19:56:18.476Z,1.43
2023-05-10T19:59:21.152Z,1.50
2023-05-10T20:02:23.663Z,1.20
2023-05-10T20:05:27.669Z,1.30
2023-05-10T20:08:31.050Z,1.43
2023-05-10T20:11:34.256Z,1.30
2023-05-10T20:14:37.124Z,1.40
2023-05-10T20:17:39.937Z,1.83
2023-05-10T20:20:43.214Z,1.85
2023-05-10T20:23:45.649Z,1.63
2023-05-10T20:26:48.160Z,2.07
2023-05-10T20:29:50.659Z,2.40
2023-05-10T20:32:53.613Z,2.00
2023-05-10T20:35:56.301Z,2.30
2023-05-10T20:38:58.671Z,2.37
2023-05-10T20:42:01.202Z,2.40
2023-05-10T20:45:04.491Z,2.42
2023-05-10T20:48:07.828Z,2.40
2023-05-10T20:51:10.307Z,2.22
2023-05-10T20:54:12.744Z,2.57
2023-05-10T20:57:15.533Z,2.73
2023-05-10T21:00:18.287Z,3.00
2023-05-10T21:03:20.974Z,3.30
2023-05-10T21:06:23.517Z,3.10
2023-05-10T21:09:25.922Z,3.17
2023-05-10T21:12:28.404Z,2.77
2023-05-10T21:15:30.877Z,2.55
2023-05-10T21:18:33.326Z,2.70
2023-05-10T21:21:36.025Z,2.33
2023-05-10T21:24:38.565Z,2.63
2023-05-10T21:27:40.934Z,2.27
2023-05-10T21:30:43.346Z,2.22
2023-05-10T21:33:45.926Z,2.20
2023-05-10T21:36:48.514Z,2.20
2023-05-10T21:39:52.868Z,2.10
2023-05-10T21:42:55.437Z,2.13
2023-05-10T21:45:57.867Z,1.80
2023-05-10T21:49:00.360Z,1.70
2023-05-10T21:52:02.791Z,1.88
2023-05-10T21:55:06.642Z,1.87
2023-05-10T21:58:09.088Z,1.90
2023-05-10T22:01:11.589Z,1.80
2023-05-10T22:04:14.130Z,1.58
2023-05-10T22:07:17.073Z,2.03
2023-05-10T22:10:19.870Z,2.10
2023-05-10T22:13:22.397Z,1.90
2023-05-10T22:16:25.109Z,1.80
2023-05-10T22:19:27.803Z,1.90
2023-05-10T22:22:30.137Z,1.58
2023-05-10T22:25:32.648Z,1.97
2023-05-10T22:28:35.167Z,1.97
2023-05-10T22:31:38.277Z,1.90
2023-05-10T22:34:43.120Z,1.90
2023-05-10T22:37:45.513Z,1.80
2023-05-10T22:40:47.891Z,1.80
2023-05-10T22:43:50.501Z,2.00
2023-05-10T22:46:52.968Z,1.80
2023-05-10T22:49:56.172Z,1.60
2023-05-10T22:52:58.661Z,1.70
2023-05-10T22:56:01.617Z,1.57
2023-05-10T22:59:04.163Z,1.80
2023-05-10T23:02:07.094Z,1.77
2023-05-10T23:05:10.009Z,1.65
2023-05-10T23:08:12.981Z,1.88
2023-05-10T23:11:15.501Z,1.63
2023-05-10T23:14:17.857Z,1.63
2023-05-10T23:17:20.563Z,1.70
2023-05-10T23:20:22.970Z,1.35
2023-05-10T23:23:25.651Z,1.80
2023-05-10T23:26:28.129Z,1.63
2023-05-10T23:29:32.046Z,1.83
2023-05-10T23:32:34.536Z,1.52
2023-05-10T23:35:37.173Z,1.70
2023-05-10T23:38:39.647Z,1.60
2023-05-10T23:41:42.758Z,1.70
2023-05-10T23:44:45.462Z,1.50
2023-05-10T23:47:47.973Z,1.33
2023-05-10T23:50:50.735Z,1.30
2023-05-10T23:53:53.180Z,1.40
2023-05-10T23:56:55.732Z,1.47
2023-05-10T23:59:58.381Z,1.70
